Time;durP1;ratioP1;P1;durP2;ratioP2;P2;SDS_P1;SDS_P2;PMS_P1;PMS_P2;Temp;Humidity;BMP_temperature;BMP_pressure;BME280_temperature;BME280_humidity;BME280_pressure;Samples;Min_cycle;Max_cycle;Signal;HPM_P1;HPM_P2
2024/04/09 00:01:37;;;;;;;0.20;0.10;;;;;;;;;;5349913;26;20028;-79
2024/04/09 00:04:04;;;;;;;0.20;0.10;;;;;;;;;;5351762;26;20020;-78
2024/04/09 00:06:31;;;;;;;0.22;0.20;;;;;;;;;;5351224;26;20107;-78
2024/04/09 00:08:59;;;;;;;0.20;0.10;;;;;;;;;;5348336;26;20021;-78
2024/04/09 00:11:26;;;;;;;0.20;0.10;;;;;;;;;;5350337;26;20034;-78
2024/04/09 00:13:58;;;;;;;0.20;0.10;;;;;;;;;;5350246;26;20029;-78
2024/04/09 00:16:25;;;;;;;0.40;0.20;;;;;;;;;;5346604;26;20037;-80
2024/04/09 00:18:54;;;;;;;0.25;0.17;;;;;;;;;;5349357;26;20104;-79
2024/04/09 00:21:24;;;;;;;0.20;0.10;;;;;;;;;;5351518;26;20025;-79
2024/04/09 00:23:52;;;;;;;0.38;0.22;;;;;;;;;;5351606;26;20054;-79
2024/04/09 00:26:21;;;;;;;0.20;0.10;;;;;;;;;;5349891;26;20402;-79
2024/04/09 00:28:49;;;;;;;0.20;0.10;;;;;;;;;;5347972;26;20029;-80
2024/04/09 00:31:19;;;;;;;0.20;0.20;;;;;;;;;;5350029;26;20033;-81
2024/04/09 00:33:46;;;;;;;0.28;0.20;;;;;;;;;;5348360;26;20025;-82
2024/04/09 00:36:13;;;;;;;0.20;0.10;;;;;;;;;;5352538;26;20034;-81
2024/04/09 00:38:41;;;;;;;0.20;0.10;;;;;;;;;;5351739;26;22187;-81
2024/04/09 00:41:10;;;;;;;0.30;0.20;;;;;;;;;;5352621;26;20025;-82
2024/04/09 00:43:37;;;;;;;0.30;0.30;;;;;;;;;;5354372;26;20090;-82
2024/04/09 00:46:05;;;;;;;0.20;0.10;;;;;;;;;;5362689;21;20048;-80
2024/04/09 00:48:33;;;;;;;1.60;1.17;;;;;;;;;;5362210;26;20019;-81
2024/04/09 00:51:00;;;;;;;0.20;0.00;;;;;;;;;;5333721;26;20353;-80
2024/04/09 00:53:28;;;;;;;0.20;0.20;;;;;;;;;;5343220;26;20377;-81
2024/04/09 00:55:55;;;;;;;0.20;0.10;;;;;;;;;;5324865;26;20009;-80
2024/04/09 00:58:24;;;;;;;0.20;0.10;;;;;;;;;;5335489;26;20476;-81
2024/04/09 01:00:52;;;;;;;0.20;0.10;;;;;;;;;;5375158;26;20347;-81
2024/04/09 01:03:20;;;;;;;0.20;0.20;;;;;;;;;;5372044;26;20004;-81
2024/04/09 01:05:47;;;;;;;0.20;0.10;;;;;;;;;;5346710;26;20004;-81
2024/04/09 01:08:15;;;;;;;0.20;0.10;;;;;;;;;;5369509;26;20023;-80
2024/04/09 01:10:42;;;;;;;0.20;0.10;;;;;;;;;;5341653;26;20019;-81
2024/04/09 01:13:09;;;;;;;0.30;0.30;;;;;;;;;;5372601;26;20004;-81
2024/04/09 01:15:37;;;;;;;0.20;0.20;;;;;;;;;;5334526;26;20026;-81
2024/04/09 01:18:04;;;;;;;0.20;0.10;;;;;;;;;;5345550;26;20379;-81
2024/04/09 01:20:32;;;;;;;0.38;0.28;;;;;;;;;;5368069;26;20026;-81
2024/04/09 01:22:59;;;;;;;0.20;0.10;;;;;;;;;;5340015;26;20361;-81
2024/04/09 01:25:27;;;;;;;0.30;0.20;;;;;;;;;;5369374;26;20460;-81
2024/04/09 01:27:54;;;;;;;0.20;0.10;;;;;;;;;;5341149;26;20004;-81
2024/04/09 01:30:22;;;;;;;0.30;0.20;;;;;;;;;;5342353;26;20019;-80
2024/04/09 01:32:49;;;;;;;0.20;0.17;;;;;;;;;;5368258;26;20078;-81
2024/04/09 01:35:18;;;;;;;0.20;0.17;;;;;;;;;;5339865;26;20048;-81
2024/04/09 01:37:46;;;;;;;0.20;0.15;;;;;;;;;;5340212;26;20008;-81
2024/04/09 01:40:13;;;;;;;0.30;0.20;;;;;;;;;;5371908;26;20012;-81
2024/04/09 01:42:41;;;;;;;0.20;0.10;;;;;;;;;;5367989;26;20056;-81
2024/04/09 01:45:08;;;;;;;0.20;0.03;;;;;;;;;;5372359;26;20395;-81
2024/04/09 01:47:36;;;;;;;1.23;0.25;;;;;;;;;;5337465;26;20005;-81
2024/04/09 01:50:04;;;;;;;0.20;0.20;;;;;;;;;;5369607;26;20004;-81
2024/04/09 01:52:34;;;;;;;0.20;0.10;;;;;;;;;;5372513;26;20013;-80
2024/04/09 01:55:05;;;;;;;0.20;0.20;;;;;;;;;;5368877;26;20004;-81
2024/04/09 01:57:32;;;;;;;0.20;0.13;;;;;;;;;;5371820;26;20008;-81
2024/04/09 01:59:59;;;;;;;0.20;0.10;;;;;;;;;;5339350;26;20012;-81
2024/04/09 02:02:27;;;;;;;0.20;0.10;;;;;;;;;;5341678;26;20004;-81
2024/04/09 02:04:55;;;;;;;0.30;0.30;;;;;;;;;;5373213;26;20018;-81
2024/04/09 02:07:22;;;;;;;0.47;0.22;;;;;;;;;;5369709;26;20016;-81
2024/04/09 02:09:50;;;;;;;0.82;0.30;;;;;;;;;;5340850;26;20022;-80
2024/04/09 02:12:17;;;;;;;0.20;0.17;;;;;;;;;;5341935;26;20332;-81
2024/04/09 02:14:45;;;;;;;0.20;0.00;;;;;;;;;;5340833;26;20018;-81
2024/04/09 02:17:12;;;;;;;0.20;0.10;;;;;;;;;;5373980;26;20498;-81
2024/04/09 02:19:39;;;;;;;0.22;0.20;;;;;;;;;;5340967;26;20401;-80
2024/04/09 02:22:07;;;;;;;0.20;0.00;;;;;;;;;;5342845;26;20004;-81
2024/04/09 02:24:35;;;;;;;0.30;0.20;;;;;;;;;;5341079;26;20022;-81
2024/04/09 02:27:03;;;;;;;0.20;0.17;;;;;;;;;;5370527;26;20008;-81
2024/04/09 02:29:31;;;;;;;0.20;0.13;;;;;;;;;;5341199;26;20051;-80
2024/04/09 02:31:59;;;;;;;0.20;0.10;;;;;;;;;;5369763;26;20001;-80
2024/04/09 02:34:26;;;;;;;0.20;0.10;;;;;;;;;;5370313;26;20030;-80
2024/04/09 02:36:53;;;;;;;0.20;0.10;;;;;;;;;;5338459;26;20015;-79
2024/04/09 02:39:22;;;;;;;0.20;0.10;;;;;;;;;;5335139;26;20023;-79
2024/04/09 02:41:49;;;;;;;0.20;0.00;;;;;;;;;;5368328;26;20008;-80
2024/04/09 02:44:16;;;;;;;0.20;0.10;;;;;;;;;;5334072;26;20004;-80
2024/04/09 02:46:43;;;;;;;0.25;0.20;;;;;;;;;;5371611;26;20008;-79
2024/04/09 02:49:11;;;;;;;0.20;0.03;;;;;;;;;;5370676;26;20475;-79
2024/04/09 02:51:39;;;;;;;0.30;0.20;;;;;;;;;;5369001;26;20011;-82
2024/04/09 02:54:06;;;;;;;0.20;0.17;;;;;;;;;;5332671;26;20015;-80
2024/04/09 02:56:34;;;;;;;0.30;0.30;;;;;;;;;;5341712;26;20023;-81
2024/04/09 02:59:03;;;;;;;0.68;0.30;;;;;;;;;;5369888;26;20463;-80
2024/04/09 03:01:30;;;;;;;0.47;0.20;;;;;;;;;;5345917;26;20627;-80
2024/04/09 03:03:57;;;;;;;0.20;0.10;;;;;;;;;;5339763;26;20455;-80
2024/04/09 03:06:25;;;;;;;1.75;0.32;;;;;;;;;;5341856;26;20012;-81
2024/04/09 03:08:52;;;;;;;0.28;0.15;;;;;;;;;;5368588;26;20018;-81
2024/04/09 03:11:19;;;;;;;0.82;0.75;;;;;;;;;;5335011;26;20578;-80
2024/04/09 03:13:49;;;;;;;0.20;0.10;;;;;;;;;;5335350;26;20030;-81
2024/04/09 03:16:17;;;;;;;0.43;0.20;;;;;;;;;;5369997;26;20018;-81
2024/04/09 03:18:44;;;;;;;0.20;0.10;;;;;;;;;;5338099;26;20008;-81
2024/04/09 03:21:12;;;;;;;0.20;0.20;;;;;;;;;;5370113;26;20575;-81
2024/04/09 03:23:40;;;;;;;0.20;0.03;;;;;;;;;;5338184;26;20019;-80
2024/04/09 03:26:07;;;;;;;0.73;0.30;;;;;;;;;;5341492;26;20000;-80
2024/04/09 03:28:34;;;;;;;0.30;0.10;;;;;;;;;;5340526;26;20016;-80
2024/04/09 03:31:02;;;;;;;0.20;0.20;;;;;;;;;;5371137;26;20057;-80
2024/04/09 03:33:30;;;;;;;0.20;0.10;;;;;;;;;;5370234;26;20022;-80
2024/04/09 03:35:59;;;;;;;0.50;0.50;;;;;;;;;;5366664;26;20022;-80
2024/04/09 03:38:30;;;;;;;0.30;0.30;;;;;;;;;;5367997;26;20363;-80
2024/04/09 03:40:57;;;;;;;0.25;0.20;;;;;;;;;;5372671;26;20032;-80
2024/04/09 03:43:24;;;;;;;0.20;0.10;;;;;;;;;;5366399;26;20008;-81
2024/04/09 03:46:01;;;;;;;0.20;0.10;;;;;;;;;;5335425;26;20005;-80
2024/04/09 03:48:29;;;;;;;0.52;0.20;;;;;;;;;;5340268;26;20156;-80
2024/04/09 03:50:58;;;;;;;0.20;0.10;;;;;;;;;;5370907;26;20022;-80
2024/04/09 03:53:28;;;;;;;0.20;0.10;;;;;;;;;;5333469;26;20359;-81
2024/04/09 03:55:56;;;;;;;0.22;0.22;;;;;;;;;;5371085;26;20358;-79
2024/04/09 03:58:24;;;;;;;0.20;0.08;;;;;;;;;;5334432;26;20030;-80
2024/04/09 04:00:58;;;;;;;0.30;0.30;;;;;;;;;;5331691;26;21363;-81
2024/04/09 04:03:28;;;;;;;0.20;0.08;;;;;;;;;;5365698;26;20005;-82
2024/04/09 04:05:59;;;;;;;0.20;0.10;;;;;;;;;;5362736;26;20011;-79
2024/04/09 04:08:31;;;;;;;0.20;0.10;;;;;;;;;;5353759;26;20008;-80
2024/04/09 04:10:59;;;;;;;0.20;0.10;;;;;;;;;;5370796;26;20008;-80
2024/04/09 04:13:28;;;;;;;0.52;0.15;;;;;;;;;;5370995;26;20023;-81
2024/04/09 04:15:59;;;;;;;0.20;0.10;;;;;;;;;;5371295;26;20488;-80
2024/04/09 04:18:26;;;;;;;0.20;0.10;;;;;;;;;;5371584;26;20009;-79
2024/04/09 04:20:55;;;;;;;0.20;0.10;;;;;;;;;;5332271;26;20016;-82
2024/04/09 04:23:22;;;;;;;0.20;0.10;;;;;;;;;;5367713;26;20008;-79
2024/04/09 04:25:58;;;;;;;0.40;0.20;;;;;;;;;;5377403;26;20079;-80
2024/04/09 04:28:26;;;;;;;0.20;0.10;;;;;;;;;;5401281;26;20008;-80
2024/04/09 04:30:53;;;;;;;0.20;0.10;;;;;;;;;;5373496;26;20048;-80
2024/04/09 04:33:20;;;;;;;0.20;0.10;;;;;;;;;;5375433;26;20115;-79
2024/04/09 04:35:48;;;;;;;0.20;0.00;;;;;;;;;;5367532;26;20023;-81
2024/04/09 04:38:16;;;;;;;0.20;0.10;;;;;;;;;;5370728;26;20018;-82
2024/04/09 04:40:45;;;;;;;0.25;0.15;;;;;;;;;;5369834;26;20012;-84
2024/04/09 04:43:15;;;;;;;0.20;0.10;;;;;;;;;;5334585;26;20012;-81
2024/04/09 04:45:43;;;;;;;0.20;0.10;;;;;;;;;;5334889;26;20019;-80
2024/04/09 04:48:11;;;;;;;0.20;0.20;;;;;;;;;;5360498;26;20022;-83
2024/04/09 04:50:39;;;;;;;0.20;0.10;;;;;;;;;;5367897;26;20026;-79
2024/04/09 04:53:06;;;;;;;0.20;0.10;;;;;;;;;;5330588;26;20015;-81
2024/04/09 04:55:34;;;;;;;0.20;0.03;;;;;;;;;;5334949;26;20023;-80
2024/04/09 04:58:01;;;;;;;0.35;0.17;;;;;;;;;;5367453;26;20027;-81
2024/04/09 05:00:29;;;;;;;0.20;0.10;;;;;;;;;;5357723;26;20004;-82
2024/04/09 05:02:56;;;;;;;0.28;0.20;;;;;;;;;;5326856;26;20005;-81
2024/04/09 05:05:24;;;;;;;0.63;0.13;;;;;;;;;;5367195;26;20016;-83
2024/04/09 05:07:52;;;;;;;0.20;0.10;;;;;;;;;;5365898;26;20012;-82
2024/04/09 05:10:19;;;;;;;0.20;0.08;;;;;;;;;;5368643;26;20012;-81
2024/04/09 05:12:47;;;;;;;0.20;0.10;;;;;;;;;;5366552;26;20008;-80
2024/04/09 05:15:15;;;;;;;0.20;0.10;;;;;;;;;;5332207;26;20004;-80
2024/04/09 05:17:43;;;;;;;0.20;0.10;;;;;;;;;;5330243;26;20012;-82
2024/04/09 05:20:11;;;;;;;0.20;0.10;;;;;;;;;;5331888;26;20094;-81
2024/04/09 05:22:38;;;;;;;0.20;0.10;;;;;;;;;;5335636;26;20474;-84
2024/04/09 05:25:06;;;;;;;0.45;0.22;;;;;;;;;;5330475;26;20030;-81
2024/04/09 05:27:33;;;;;;;0.20;0.10;;;;;;;;;;5373887;26;21194;-81
2024/04/09 05:30:01;;;;;;;0.30;0.20;;;;;;;;;;5349500;26;20008;-83
2024/04/09 05:32:29;;;;;;;0.20;0.10;;;;;;;;;;5350086;26;20040;-83
2024/04/09 05:34:56;;;;;;;0.20;0.10;;;;;;;;;;5376939;26;20032;-82
2024/04/09 05:37:24;;;;;;;0.60;0.05;;;;;;;;;;5348222;26;20025;-81
2024/04/09 05:39:51;;;;;;;0.20;0.10;;;;;;;;;;5340010;26;20016;-83
2024/04/09 05:42:19;;;;;;;0.20;0.10;;;;;;;;;;5372620;26;20033;-82
2024/04/09 05:44:47;;;;;;;0.40;0.40;;;;;;;;;;5342320;26;20022;-81
2024/04/09 05:47:14;;;;;;;0.20;0.00;;;;;;;;;;5369950;26;20028;-81
2024/04/09 05:49:41;;;;;;;1.00;0.38;;;;;;;;;;5345487;26;20008;-82
2024/04/09 05:52:09;;;;;;;0.20;0.10;;;;;;;;;;5342792;26;20022;-80
2024/04/09 05:54:40;;;;;;;0.28;0.08;;;;;;;;;;5378049;26;20044;-82
2024/04/09 05:57:07;;;;;;;0.20;0.00;;;;;;;;;;5343710;26;20576;-81
2024/04/09 05:59:34;;;;;;;0.20;0.20;;;;;;;;;;5375919;26;20018;-79
2024/04/09 06:02:01;;;;;;;0.20;0.00;;;;;;;;;;5348112;26;20447;-81
2024/04/09 06:04:29;;;;;;;0.20;0.10;;;;;;;;;;5377080;26;20036;-83
2024/04/09 06:06:56;;;;;;;0.20;0.10;;;;;;;;;;5348232;26;20004;-81
2024/04/09 06:09:23;;;;;;;0.20;0.10;;;;;;;;;;5376414;26;20036;-81
2024/04/09 06:11:51;;;;;;;0.20;0.10;;;;;;;;;;5333925;26;20008;-81
2024/04/09 06:14:18;;;;;;;0.20;0.10;;;;;;;;;;5375238;26;20036;-82
2024/04/09 06:16:45;;;;;;;0.20;0.10;;;;;;;;;;5342000;26;20004;-82
2024/04/09 06:19:12;;;;;;;0.30;0.20;;;;;;;;;;5348959;26;20028;-81
2024/04/09 06:21:39;;;;;;;0.63;0.40;;;;;;;;;;5374483;26;20004;-81
2024/04/09 06:24:07;;;;;;;0.20;0.00;;;;;;;;;;5377275;26;20028;-81
2024/04/09 06:26:34;;;;;;;0.20;0.10;;;;;;;;;;5346905;26;20024;-84
2024/04/09 06:29:01;;;;;;;0.30;0.22;;;;;;;;;;5350341;26;20024;-83
2024/04/09 06:31:29;;;;;;;0.20;0.00;;;;;;;;;;5373791;26;20036;-83
2024/04/09 06:33:56;;;;;;;0.85;0.57;;;;;;;;;;5375272;26;20032;-83
2024/04/09 06:36:23;;;;;;;0.20;0.10;;;;;;;;;;5374567;26;20547;-83
2024/04/09 06:38:51;;;;;;;0.20;0.10;;;;;;;;;;5372961;26;20055;-81
2024/04/09 06:41:18;;;;;;;0.20;0.00;;;;;;;;;;5354314;26;20343;-80
2024/04/09 06:43:46;;;;;;;0.25;0.10;;;;;;;;;;5374405;26;20036;-82
2024/04/09 06:46:13;;;;;;;0.20;0.00;;;;;;;;;;5364060;21;20038;-81
2024/04/09 06:48:40;;;;;;;0.20;0.10;;;;;;;;;;5257106;27;20017;-80
2024/04/09 06:51:08;;;;;;;0.20;0.10;;;;;;;;;;5265267;27;20379;-80
2024/04/09 06:53:35;;;;;;;0.20;0.20;;;;;;;;;;5258482;27;20592;-79
2024/04/09 06:56:03;;;;;;;0.20;0.10;;;;;;;;;;5253271;27;20044;-79
2024/04/09 06:58:30;;;;;;;0.20;0.10;;;;;;;;;;5221921;27;20500;-79
2024/04/09 07:00:57;;;;;;;0.20;0.10;;;;;;;;;;5221528;27;20015;-78
2024/04/09 07:03:24;;;;;;;0.20;0.00;;;;;;;;;;5226510;27;20022;-78
2024/04/09 07:05:52;;;;;;;0.20;0.10;;;;;;;;;;5220616;27;20011;-77
2024/04/09 07:08:20;;;;;;;0.20;0.10;;;;;;;;;;5227657;27;20024;-75
2024/04/09 07:10:55;;;;;;;0.20;0.00;;;;;;;;;;5227467;27;20054;-76
2024/04/09 07:13:23;;;;;;;0.20;0.00;;;;;;;;;;5210365;27;20388;-78
2024/04/09 07:15:50;;;;;;;0.20;0.10;;;;;;;;;;5227648;27;20035;-77
2024/04/09 07:18:17;;;;;;;0.20;0.00;;;;;;;;;;5205657;27;20019;-77
2024/04/09 07:20:46;;;;;;;1.42;0.20;;;;;;;;;;5229616;27;20025;-79
2024/04/09 07:23:14;;;;;;;0.20;0.00;;;;;;;;;;5227057;27;20029;-78
2024/04/09 07:25:41;;;;;;;0.20;0.00;;;;;;;;;;5213953;27;20071;-77
2024/04/09 07:28:08;;;;;;;0.20;0.05;;;;;;;;;;5218386;27;20018;-78
2024/04/09 07:30:36;;;;;;;0.40;0.40;;;;;;;;;;5222393;27;20019;-78
2024/04/09 07:33:04;;;;;;;0.20;0.00;;;;;;;;;;5225212;27;20007;-78
2024/04/09 07:35:32;;;;;;;0.20;0.10;;;;;;;;;;5224471;27;20391;-78
2024/04/09 07:38:00;;;;;;;0.47;0.25;;;;;;;;;;5198379;27;20013;-79
2024/04/09 07:40:28;;;;;;;0.20;0.00;;;;;;;;;;5230226;27;20480;-78
2024/04/09 07:42:56;;;;;;;0.20;0.00;;;;;;;;;;5229183;27;20030;-78
2024/04/09 07:45:23;;;;;;;0.20;0.10;;;;;;;;;;5225783;27;20011;-77
2024/04/09 07:47:51;;;;;;;0.20;0.10;;;;;;;;;;5226838;27;20035;-77
2024/04/09 07:50:19;;;;;;;0.20;0.10;;;;;;;;;;5225998;27;20047;-78
2024/04/09 07:52:47;;;;;;;1.27;0.63;;;;;;;;;;5226358;27;20046;-75
2024/04/09 07:55:16;;;;;;;0.20;0.00;;;;;;;;;;5200628;27;20003;-79
2024/04/09 07:57:43;;;;;;;0.20;0.00;;;;;;;;;;5225385;27;20007;-77
2024/04/09 08:00:14;;;;;;;0.20;0.10;;;;;;;;;;5219831;27;20044;-78
2024/04/09 08:02:44;;;;;;;0.20;0.10;;;;;;;;;;5205044;27;20007;-79
2024/04/09 08:05:12;;;;;;;0.20;0.10;;;;;;;;;;5237827;27;20032;-77
2024/04/09 08:07:39;;;;;;;0.20;0.00;;;;;;;;;;5231733;27;20731;-78
2024/04/09 08:10:13;;;;;;;1.60;0.60;;;;;;;;;;5220753;27;20021;-79
2024/04/09 08:12:45;;;;;;;0.20;0.10;;;;;;;;;;5224086;27;20012;-78
2024/04/09 08:15:12;;;;;;;0.20;0.10;;;;;;;;;;5199457;27;20025;-79
2024/04/09 08:17:39;;;;;;;0.20;0.00;;;;;;;;;;5219467;27;20011;-79
2024/04/09 08:20:07;;;;;;;0.20;0.00;;;;;;;;;;5228595;27;20030;-77
2024/04/09 08:22:35;;;;;;;0.20;0.10;;;;;;;;;;5221656;27;20012;-77
2024/04/09 08:25:02;;;;;;;0.30;0.20;;;;;;;;;;5222866;27;20358;-78
2024/04/09 08:27:36;;;;;;;0.20;0.00;;;;;;;;;;5236709;27;20055;-76
2024/04/09 08:30:05;;;;;;;0.20;0.10;;;;;;;;;;5227701;27;20007;-78
2024/04/09 08:32:33;;;;;;;0.20;0.10;;;;;;;;;;5206884;27;20025;-77
2024/04/09 08:35:01;;;;;;;0.20;0.10;;;;;;;;;;5213426;27;20520;-79
2024/04/09 08:37:28;;;;;;;0.85;0.40;;;;;;;;;;5229301;27;20347;-79
2024/04/09 08:39:56;;;;;;;0.30;0.20;;;;;;;;;;5224098;27;20007;-78
2024/04/09 08:42:24;;;;;;;0.38;0.15;;;;;;;;;;5216620;27;20372;-78
2024/04/09 08:44:52;;;;;;;0.20;0.10;;;;;;;;;;5220700;27;20043;-79
2024/04/09 08:47:20;;;;;;;0.30;0.10;;;;;;;;;;5198460;27;20011;-77
2024/04/09 08:49:51;;;;;;;0.20;0.05;;;;;;;;;;5224266;27;20043;-77
2024/04/09 08:52:18;;;;;;;1.75;1.10;;;;;;;;;;5222874;27;20011;-78
2024/04/09 08:54:47;;;;;;;0.20;0.08;;;;;;;;;;5195720;27;20011;-77
2024/04/09 08:57:14;;;;;;;0.30;0.15;;;;;;;;;;5196234;27;20011;-79
2024/04/09 08:59:42;;;;;;;0.20;0.10;;;;;;;;;;5223741;27;20007;-78
2024/04/09 09:02:13;;;;;;;0.30;0.15;;;;;;;;;;5217911;27;20007;-79
2024/04/09 09:04:40;;;;;;;0.20;0.10;;;;;;;;;;5229173;27;20047;-78
2024/04/09 09:07:18;;;;;;;0.20;0.10;;;;;;;;;;5215587;27;20015;-77
2024/04/09 09:09:46;;;;;;;0.20;0.10;;;;;;;;;;5193219;27;20015;-77
2024/04/09 09:12:13;;;;;;;1.08;1.00;;;;;;;;;;5234143;27;20379;-78
2024/04/09 09:14:50;;;;;;;0.20;0.10;;;;;;;;;;5226715;27;20469;-80
2024/04/09 09:17:17;;;;;;;0.20;0.20;;;;;;;;;;5228091;27;20011;-79
2024/04/09 09:19:44;;;;;;;0.20;0.00;;;;;;;;;;5224211;27;20007;-78
2024/04/09 09:22:12;;;;;;;0.20;0.00;;;;;;;;;;5219239;27;20029;-80
2024/04/09 09:24:39;;;;;;;0.20;0.00;;;;;;;;;;5227821;27;20012;-81
2024/04/09 09:27:10;;;;;;;0.20;0.00;;;;;;;;;;5226154;27;20528;-78
2024/04/09 09:29:37;;;;;;;0.20;0.10;;;;;;;;;;5227407;27;20470;-77
2024/04/09 09:32:05;;;;;;;0.20;0.10;;;;;;;;;;5232398;27;20468;-77
2024/04/09 09:34:35;;;;;;;0.20;0.00;;;;;;;;;;5220378;27;20012;-81
2024/04/09 09:37:06;;;;;;;0.20;0.10;;;;;;;;;;5226659;27;20017;-80
2024/04/09 09:39:35;;;;;;;0.20;0.10;;;;;;;;;;5227069;27;20011;-81
2024/04/09 09:42:02;;;;;;;0.20;0.17;;;;;;;;;;5223659;27;20475;-78
2024/04/09 09:44:30;;;;;;;0.40;0.10;;;;;;;;;;5229921;27;20479;-79
2024/04/09 09:46:58;;;;;;;1.65;0.38;;;;;;;;;;5216616;27;20011;-79
2024/04/09 09:49:27;;;;;;;0.20;0.00;;;;;;;;;;5229343;27;20038;-77
2024/04/09 09:51:55;;;;;;;0.20;0.10;;;;;;;;;;5220748;27;20026;-79
2024/04/09 09:54:23;;;;;;;0.20;0.10;;;;;;;;;;5228081;27;20059;-79
2024/04/09 09:56:53;;;;;;;0.30;0.20;;;;;;;;;;5222903;27;20026;-80
2024/04/09 09:59:23;;;;;;;0.30;0.30;;;;;;;;;;5225055;27;20020;-83
2024/04/09 10:01:51;;;;;;;0.20;0.00;;;;;;;;;;5222242;27;20383;-78
2024/04/09 10:04:19;;;;;;;0.20;0.10;;;;;;;;;;5219272;27;20022;-79
2024/04/09 10:07:02;;;;;;;0.20;0.10;;;;;;;;;;5220744;27;20082;-81
2024/04/09 10:09:42;;;;;;;0.20;0.03;;;;;;;;;;5197262;27;20012;-81
2024/04/09 10:12:22;;;;;;;0.20;0.20;;;;;;;;;;5220177;27;20007;-80
2024/04/09 10:14:57;;;;;;;0.20;0.10;;;;;;;;;;5223872;27;20343;-83
2024/04/09 10:17:30;;;;;;;0.20;0.10;;;;;;;;;;5223170;27;20542;-81
2024/04/09 10:19:57;;;;;;;;;;;;;;;;;;5230458;27;20409;-83
2024/04/09 10:22:27;;;;;;;0.20;0.10;;;;;;;;;;5225879;27;19927;-80
2024/04/09 10:24:54;;;;;;;0.20;0.20;;;;;;;;;;5225604;27;20011;-78
2024/04/09 10:27:21;;;;;;;0.20;0.05;;;;;;;;;;5220401;27;20007;-80
2024/04/09 10:29:53;;;;;;;0.20;0.10;;;;;;;;;;5225860;27;20018;-79
2024/04/09 10:32:24;;;;;;;0.35;0.35;;;;;;;;;;5232670;27;20039;-75
2024/04/09 10:34:53;;;;;;;0.35;0.20;;;;;;;;;;5229807;27;20039;-80
2024/04/09 10:37:22;;;;;;;0.32;0.32;;;;;;;;;;5217697;27;20007;-80
2024/04/09 10:39:50;;;;;;;0.20;0.10;;;;;;;;;;5198471;27;20015;-79
2024/04/09 10:42:19;;;;;;;0.20;0.10;;;;;;;;;;5228232;27;20011;-79
2024/04/09 10:44:47;;;;;;;0.20;0.10;;;;;;;;;;5223728;27;20018;-82
2024/04/09 10:47:15;;;;;;;0.30;0.10;;;;;;;;;;5224902;27;20039;-80
2024/04/09 10:49:43;;;;;;;0.20;0.10;;;;;;;;;;5228082;27;20021;-80
2024/04/09 10:52:10;;;;;;;0.20;0.00;;;;;;;;;;5221853;27;20483;-80
2024/04/09 10:54:37;;;;;;;0.60;0.60;;;;;;;;;;5223638;27;20007;-79
2024/04/09 10:57:05;;;;;;;0.63;0.52;;;;;;;;;;5224421;27;20007;-79
2024/04/09 10:59:33;;;;;;;0.20;0.00;;;;;;;;;;5224988;27;20007;-79
2024/04/09 11:02:00;;;;;;;0.20;0.08;;;;;;;;;;5225551;27;20010;-79
2024/04/09 11:04:27;;;;;;;0.20;0.10;;;;;;;;;;5206921;27;20013;-80
2024/04/09 11:06:55;;;;;;;0.20;0.10;;;;;;;;;;5213528;27;20008;-78
2024/04/09 11:09:23;;;;;;;0.20;0.08;;;;;;;;;;5229203;27;20007;-79
2024/04/09 11:11:51;;;;;;;0.20;0.10;;;;;;;;;;5229990;27;20051;-76
2024/04/09 11:14:18;;;;;;;0.20;0.10;;;;;;;;;;5228836;27;20011;-77
2024/04/09 11:16:48;;;;;;;0.20;0.10;;;;;;;;;;5218774;27;20011;-81
2024/04/09 11:19:19;;;;;;;0.40;0.35;;;;;;;;;;5231166;27;20007;-81
2024/04/09 11:21:46;;;;;;;0.20;0.10;;;;;;;;;;5224755;27;20496;-80
2024/04/09 11:24:14;;;;;;;0.20;0.10;;;;;;;;;;5199233;27;20007;-82
2024/04/09 11:26:42;;;;;;;0.20;0.00;;;;;;;;;;5223632;27;20046;-81
2024/04/09 11:29:22;;;;;;;0.20;0.10;;;;;;;;;;5223625;27;20011;-81
2024/04/09 11:31:50;;;;;;;0.20;0.00;;;;;;;;;;5228982;27;20040;-79
2024/04/09 11:34:24;;;;;;;0.20;0.00;;;;;;;;;;5217469;27;20022;-82
2024/04/09 11:36:51;;;;;;;1.45;1.00;;;;;;;;;;5225491;27;20022;-81
2024/04/09 11:39:22;;;;;;;0.20;0.10;;;;;;;;;;5229626;27;20019;-78
2024/04/09 11:41:49;;;;;;;0.25;0.15;;;;;;;;;;5225802;27;20025;-79
2024/04/09 11:44:20;;;;;;;0.20;0.08;;;;;;;;;;5225761;27;20416;-79
2024/04/09 11:46:48;;;;;;;0.20;0.10;;;;;;;;;;5222642;27;20052;-80
2024/04/09 11:49:16;;;;;;;0.45;0.45;;;;;;;;;;5230165;27;20021;-78
2024/04/09 11:51:44;;;;;;;0.20;0.10;;;;;;;;;;5221080;27;20010;-80
2024/04/09 11:54:11;;;;;;;1.58;1.25;;;;;;;;;;5227203;27;20017;-80
2024/04/09 11:56:38;;;;;;;0.20;0.00;;;;;;;;;;5229733;27;20015;-79
2024/04/09 11:59:06;;;;;;;0.20;0.10;;;;;;;;;;5228196;27;20011;-82
2024/04/09 12:01:34;;;;;;;0.20;0.10;;;;;;;;;;5216178;27;20026;-80
2024/04/09 12:04:01;;;;;;;0.30;0.20;;;;;;;;;;5229914;27;20019;-81
2024/04/09 12:06:28;;;;;;;0.20;0.10;;;;;;;;;;5221220;27;20007;-78
2024/04/09 12:08:55;;;;;;;0.20;0.05;;;;;;;;;;5224685;27;20021;-81
2024/04/09 12:11:23;;;;;;;0.20;0.08;;;;;;;;;;5220163;27;20404;-82
2024/04/09 12:13:50;;;;;;;0.20;0.10;;;;;;;;;;5229372;27;20043;-80
2024/04/09 12:16:17;;;;;;;0.20;0.00;;;;;;;;;;5218413;27;20496;-79
2024/04/09 12:18:45;;;;;;;0.20;0.10;;;;;;;;;;5224632;27;20047;-83
2024/04/09 12:21:12;;;;;;;0.20;0.10;;;;;;;;;;5227009;27;20030;-80
2024/04/09 12:23:39;;;;;;;0.20;0.00;;;;;;;;;;5223406;27;20012;-83
2024/04/09 12:26:06;;;;;;;0.20;0.10;;;;;;;;;;5220786;27;20515;-80
2024/04/09 12:28:34;;;;;;;0.40;0.28;;;;;;;;;;5223480;27;20011;-78
2024/04/09 12:31:02;;;;;;;0.20;0.00;;;;;;;;;;5215201;27;20351;-80
2024/04/09 12:33:29;;;;;;;0.20;0.10;;;;;;;;;;5222304;27;20493;-79
2024/04/09 12:35:57;;;;;;;0.20;0.03;;;;;;;;;;5226357;27;20022;-81
2024/04/09 12:38:24;;;;;;;0.20;0.10;;;;;;;;;;5226548;27;20011;-77
2024/04/09 12:40:52;;;;;;;0.82;0.82;;;;;;;;;;5203034;27;20015;-82
2024/04/09 12:43:19;;;;;;;0.20;0.00;;;;;;;;;;5228690;27;20359;-77
2024/04/09 12:45:47;;;;;;;0.20;0.00;;;;;;;;;;5228737;27;20062;-81
2024/04/09 12:48:16;;;;;;;0.40;0.32;;;;;;;;;;5333398;21;20043;-82
2024/04/09 12:50:43;;;;;;;0.20;0.08;;;;;;;;;;5328646;26;20005;-80
2024/04/09 12:53:11;;;;;;;0.20;0.10;;;;;;;;;;5336516;26;20463;-81
2024/04/09 12:55:39;;;;;;;0.20;0.10;;;;;;;;;;5331179;26;20009;-82
2024/04/09 12:58:07;;;;;;;0.20;0.10;;;;;;;;;;5339093;26;20460;-82
2024/04/09 13:00:35;;;;;;;0.68;0.55;;;;;;;;;;5321108;26;20005;-83
2024/04/09 13:03:04;;;;;;;0.20;0.10;;;;;;;;;;5333700;26;20015;-83
2024/04/09 13:05:31;;;;;;;0.20;0.10;;;;;;;;;;5296293;26;20427;-81
2024/04/09 13:07:58;;;;;;;0.20;0.00;;;;;;;;;;5302498;26;20005;-81
2024/04/09 13:10:25;;;;;;;0.20;0.10;;;;;;;;;;5324626;26;20044;-82
2024/04/09 13:12:53;;;;;;;0.20;0.10;;;;;;;;;;5328794;26;20037;-81
2024/04/09 13:15:21;;;;;;;0.20;0.10;;;;;;;;;;5309051;26;20009;-84
2024/04/09 13:17:48;;;;;;;0.20;0.00;;;;;;;;;;5304466;26;20023;-80
2024/04/09 13:20:15;;;;;;;0.20;0.10;;;;;;;;;;5323010;26;20029;-82
2024/04/09 13:22:42;;;;;;;0.20;0.10;;;;;;;;;;5327930;26;20563;-79
2024/04/09 13:25:10;;;;;;;0.20;0.00;;;;;;;;;;5302433;26;20354;-80
2024/04/09 13:27:37;;;;;;;0.20;0.10;;;;;;;;;;5301669;26;20015;-81
2024/04/09 13:30:04;;;;;;;0.20;0.10;;;;;;;;;;5337511;26;20041;-82
2024/04/09 13:32:32;;;;;;;0.20;0.10;;;;;;;;;;5343089;26;20025;-82
2024/04/09 13:34:59;;;;;;;0.20;0.00;;;;;;;;;;5314801;26;20049;-80
2024/04/09 13:37:26;;;;;;;0.52;0.43;;;;;;;;;;5334479;26;20390;-81
2024/04/09 13:39:53;;;;;;;0.20;0.10;;;;;;;;;;5328198;26;20026;-80
2024/04/09 13:42:21;;;;;;;0.20;0.00;;;;;;;;;;5335033;26;20044;-81
2024/04/09 13:44:48;;;;;;;0.20;0.10;;;;;;;;;;5336852;26;20127;-80
2024/04/09 13:47:16;;;;;;;0.20;0.00;;;;;;;;;;5336147;26;20695;-83
2024/04/09 13:49:47;;;;;;;0.20;0.10;;;;;;;;;;5328876;26;20021;-81
2024/04/09 13:52:14;;;;;;;0.20;0.00;;;;;;;;;;5303078;26;20019;-81
2024/04/09 13:54:41;;;;;;;0.20;0.10;;;;;;;;;;5337290;26;20555;-81
2024/04/09 13:57:09;;;;;;;0.20;0.00;;;;;;;;;;5332161;26;20049;-82
2024/04/09 13:59:36;;;;;;;0.20;0.00;;;;;;;;;;5333424;26;20045;-81
2024/04/09 14:02:04;;;;;;;0.75;0.70;;;;;;;;;;5323518;26;20024;-81
2024/04/09 14:04:32;;;;;;;0.30;0.10;;;;;;;;;;5301710;26;20397;-82
2024/04/09 14:06:59;;;;;;;0.25;0.08;;;;;;;;;;5327898;26;20060;-81
2024/04/09 14:09:26;;;;;;;0.20;0.10;;;;;;;;;;5330175;26;20029;-80
2024/04/09 14:11:56;;;;;;;0.20;0.10;;;;;;;;;;5324138;26;20033;-82
2024/04/09 14:14:23;;;;;;;0.20;0.00;;;;;;;;;;5326747;26;20005;-80
2024/04/09 14:16:50;;;;;;;0.20;0.10;;;;;;;;;;5293776;26;20004;-82
2024/04/09 14:19:19;;;;;;;0.20;0.08;;;;;;;;;;5324186;26;20044;-83
2024/04/09 14:21:46;;;;;;;0.20;0.00;;;;;;;;;;5320912;26;20015;-79
2024/04/09 14:24:14;;;;;;;0.20;0.10;;;;;;;;;;5327780;26;20005;-80
2024/04/09 14:26:41;;;;;;;0.20;0.03;;;;;;;;;;5322230;26;20015;-83
2024/04/09 14:29:12;;;;;;;0.20;0.10;;;;;;;;;;5332521;26;20034;-82
2024/04/09 14:31:39;;;;;;;3.53;1.55;;;;;;;;;;5331741;26;20037;-81
2024/04/09 14:34:06;;;;;;;0.20;0.10;;;;;;;;;;5326735;26;20016;-79
2024/04/09 14:36:34;;;;;;;0.20;0.00;;;;;;;;;;5325295;26;20015;-81
2024/04/09 14:39:03;;;;;;;0.20;0.00;;;;;;;;;;5304122;26;20005;-80
2024/04/09 14:41:30;;;;;;;0.20;0.00;;;;;;;;;;5328939;26;20015;-81
2024/04/09 14:43:57;;;;;;;0.30;0.28;;;;;;;;;;5323339;26;20467;-82
2024/04/09 14:46:25;;;;;;;0.20;0.00;;;;;;;;;;5324502;26;20026;-80
2024/04/09 14:48:52;;;;;;;0.20;0.05;;;;;;;;;;5291431;26;20639;-81